| Date | Time | Temp. (oF) | Dew Point (oF) | Rel. Hum. (%) | Press. (in.) | Wind Dir. | Wind Speed (mph) | Hourly Rainfall (in.) |
|
|---|---|---|---|---|---|---|---|---|---|
| 1 | 11/12 | 00:00 | 46 | 37 | 72 | 30.24 | NE | 9 | 0.00 |
| 2 | 11/11 | 23:00 | 46 | 37 | 73 | 30.25 | ENE | 4 | 0.00 |
| 3 | 11/11 | 22:00 | 47 | 36 | 67 | 30.25 | NE | 5 | 0.00 |
| 4 | 11/11 | 21:00 | 48 | 36 | 65 | 30.26 | ENE | 9 | 0.00 |
| 5 | 11/11 | 20:00 | 48 | 36 | 65 | 30.27 | ESE | 5 | 0.00 |
| 6 | 11/11 | 19:00 | 49 | 36 | 61 | 30.26 | ENE | 6 | 0.00 |
| 7 | 11/11 | 18:00 | 50 | 37 | 63 | 30.27 | E | 7 | 0.00 |
| 8 | 11/11 | 17:00 | 50 | 37 | 63 | 30.26 | E | 6 | 0.00 |
| 9 | 11/11 | 16:00 | 51 | 38 | 62 | 30.26 | E | 4 | 0.00 |
| 10 | 11/11 | 15:00 | 52 | 38 | 60 | 30.25 | N | 9 | 0.00 |
| 11 | 11/11 | 14:00 | 52 | 39 | 63 | 30.25 | NNE | 7 | 0.00 |
| 12 | 11/11 | 13:00 | 51 | 41 | 69 | 30.27 | NE | 8 | 0.00 |
| 13 | 11/11 | 12:00 | 50 | 42 | 74 | 30.29 | E | 9 | 0.00 |
| 14 | 11/11 | 11:00 | 48 | 43 | 84 | 30.32 | ENE | 7 | 0.00 |
| 15 | 11/11 | 10:00 | 47 | 43 | 89 | 30.33 | ENE | 4 | 0.01 |
| 16 | 11/11 | 09:00 | 46 | 44 | 94 | 30.33 | ENE | 7 | 0.04 |
| 17 | 11/11 | 08:00 | 46 | 43 | 90 | 30.32 | NE | 7 | 0.02 |
| 18 | 11/11 | 07:00 | 47 | 42 | 85 | 30.30 | NNE | 10 | 0.01 |
| 19 | 11/11 | 06:00 | 48 | 42 | 81 | 30.27 | NNE | 10 | 0.01 |
| 20 | 11/11 | 05:00 | 49 | 44 | 83 | 30.26 | NNE | 4 | 0.01 |
| 21 | 11/11 | 04:00 | 50 | 44 | 81 | 30.26 | NNW | 0 | 0.00 |
| 22 | 11/11 | 03:00 | 50 | 45 | 83 | 30.26 | NE | 0 | 0.00 |
| 23 | 11/11 | 02:00 | 50 | 45 | 84 | 30.26 | NNW | 0 | 0.01 |
| 24 | 11/11 | 01:00 | 51 | 44 | 78 | 30.27 | NE | 0 | 0.00 |